createdAt,value
2019-02-03T00:01:25.809Z,0.00
2019-02-03T00:02:25.848Z,0.00
2019-02-03T00:04:18.850Z,0.00
2019-02-03T00:05:19.854Z,0.00
2019-02-03T00:07:11.908Z,0.00
2019-02-03T00:08:11.955Z,0.00
2019-02-03T00:10:04.926Z,0.00
2019-02-03T00:11:04.976Z,0.00
2019-02-03T00:12:58.091Z,0.00
2019-02-03T00:13:58.017Z,0.00
2019-02-03T00:15:50.981Z,0.00
2019-02-03T00:16:51.028Z,0.00
2019-02-03T00:18:45.095Z,0.00
2019-02-03T00:19:44.053Z,0.00
2019-02-03T00:21:37.559Z,0.00
2019-02-03T00:22:37.599Z,0.00
2019-02-03T00:24:30.563Z,0.00
2019-02-03T00:25:30.611Z,0.00
2019-02-03T00:27:25.093Z,0.00
2019-02-03T00:28:25.159Z,0.00
2019-02-03T00:30:18.151Z,0.00
2019-02-03T00:31:18.166Z,0.00
2019-02-03T00:33:11.147Z,0.00
2019-02-03T00:34:11.215Z,0.00
2019-02-03T00:36:04.206Z,0.00
2019-02-03T00:37:14.877Z,0.00
2019-02-03T00:38:57.232Z,0.00
2019-02-03T00:39:57.279Z,0.00
2019-02-03T00:41:50.250Z,0.00
2019-02-03T00:42:50.295Z,0.00
2019-02-03T00:44:43.783Z,0.00
2019-02-03T00:45:43.829Z,0.00
2019-02-03T00:47:37.297Z,0.00
2019-02-03T00:48:37.351Z,0.00
2019-02-03T00:50:30.343Z,0.00
2019-02-03T00:51:31.351Z,0.00
2019-02-03T00:53:23.354Z,0.00
2019-02-03T00:54:23.404Z,0.00
2019-02-03T00:56:16.398Z,0.00
2019-02-03T00:57:16.449Z,0.00
2019-02-03T00:59:09.452Z,0.00
2019-02-03T01:00:09.509Z,0.00
2019-02-03T01:02:02.507Z,0.00
2019-02-03T01:03:02.536Z,0.00
2019-02-03T01:04:58.524Z,0.00
2019-02-03T01:05:58.568Z,0.00
2019-02-03T01:07:51.589Z,0.00
2019-02-03T01:08:51.595Z,0.00
2019-02-03T01:10:44.612Z,0.00
2019-02-03T01:11:44.659Z,0.00
2019-02-03T01:13:37.629Z,0.00
2019-02-03T01:14:37.686Z,0.00
2019-02-03T01:16:32.171Z,0.00
2019-02-03T01:17:32.218Z,0.00
2019-02-03T01:19:25.194Z,0.00
2019-02-03T01:20:25.239Z,0.00
2019-02-03T01:22:18.233Z,0.00
2019-02-03T01:23:18.287Z,0.00
2019-02-03T01:25:12.756Z,0.00
2019-02-03T01:26:12.814Z,0.00
2019-02-03T01:28:05.794Z,0.00
2019-02-03T01:29:05.870Z,0.00
2019-02-03T01:30:58.849Z,0.00
2019-02-03T01:31:58.894Z,0.00
2019-02-03T01:33:51.883Z,0.00
2019-02-03T01:34:52.058Z,0.00
2019-02-03T01:36:44.944Z,0.00
2019-02-03T01:37:44.979Z,0.00
2019-02-03T01:39:37.964Z,0.00
2019-02-03T01:40:38.003Z,0.00
2019-02-03T01:42:30.994Z,0.00
2019-02-03T01:43:31.026Z,0.00
2019-02-03T01:45:24.038Z,0.00
2019-02-03T01:46:24.077Z,0.00
2019-02-03T01:48:17.052Z,0.00
2019-02-03T01:49:17.087Z,0.00
2019-02-03T01:51:10.080Z,0.00
2019-02-03T01:52:10.115Z,0.00
2019-02-03T01:54:03.091Z,0.00
2019-02-03T01:55:03.139Z,0.00
2019-02-03T01:56:56.161Z,0.00
2019-02-03T01:57:56.189Z,0.00
2019-02-03T01:59:49.180Z,0.00
2019-02-03T02:00:49.233Z,0.00
2019-02-03T02:02:42.223Z,0.00
2019-02-03T02:03:42.268Z,0.00
2019-02-03T02:05:35.251Z,0.00
2019-02-03T02:06:35.299Z,0.00
2019-02-03T02:08:28.266Z,0.00
2019-02-03T02:09:28.325Z,0.00
2019-02-03T02:11:21.829Z,0.00
2019-02-03T02:12:21.882Z,0.00
2019-02-03T02:14:15.462Z,0.00
2019-02-03T02:15:15.406Z,0.00
2019-02-03T02:17:08.381Z,0.00
2019-02-03T02:18:08.428Z,0.00
2019-02-03T02:20:01.404Z,0.00
2019-02-03T02:21:02.431Z,0.00
2019-02-03T02:22:54.949Z,0.00
2019-02-03T02:23:54.993Z,0.00
2019-02-03T02:25:47.976Z,0.00
2019-02-03T02:26:48.031Z,0.00
2019-02-03T02:28:42.500Z,0.00
2019-02-03T02:29:42.548Z,0.00
2019-02-03T02:31:40.527Z,0.00
2019-02-03T02:32:40.572Z,0.00
2019-02-03T02:34:33.546Z,0.00
2019-02-03T02:35:33.599Z,0.00
2019-02-03T02:37:28.079Z,0.00
2019-02-03T02:38:28.130Z,0.00
2019-02-03T02:40:21.619Z,0.00
2019-02-03T02:41:21.656Z,0.00
2019-02-03T02:43:17.640Z,0.00
2019-02-03T02:44:17.681Z,0.00
2019-02-03T02:46:10.670Z,0.00
2019-02-03T02:47:10.735Z,0.00
2019-02-03T02:49:03.719Z,0.00
2019-02-03T02:50:03.754Z,0.00
2019-02-03T02:51:56.746Z,0.00
2019-02-03T02:52:56.798Z,0.00
2019-02-03T02:54:54.759Z,0.00
2019-02-03T02:55:54.809Z,0.00
2019-02-03T02:57:47.807Z,0.00
2019-02-03T02:58:47.847Z,0.00
2019-02-03T03:00:40.827Z,0.00
2019-02-03T03:01:40.871Z,0.00
2019-02-03T03:03:33.847Z,0.00
2019-02-03T03:04:33.900Z,0.00
2019-02-03T03:06:26.905Z,0.00
2019-02-03T03:07:26.941Z,0.00
2019-02-03T03:09:19.920Z,0.00
2019-02-03T03:10:19.945Z,0.00
2019-02-03T03:12:12.973Z,0.00
2019-02-03T03:13:13.002Z,0.00
2019-02-03T03:15:06.003Z,0.00
2019-02-03T03:16:06.043Z,0.00
2019-02-03T03:17:59.056Z,0.00
2019-02-03T03:18:59.072Z,0.00
2019-02-03T03:20:52.057Z,0.00
2019-02-03T03:21:52.109Z,0.00
2019-02-03T03:23:45.612Z,0.00
2019-02-03T03:24:45.627Z,0.00
2019-02-03T03:26:43.611Z,0.00
2019-02-03T03:27:43.681Z,0.00
2019-02-03T03:29:36.690Z,0.00
2019-02-03T03:30:36.707Z,0.00
2019-02-03T03:32:29.699Z,0.00
2019-02-03T03:33:29.736Z,0.00
2019-02-03T03:35:22.732Z,0.00
2019-02-03T03:36:22.772Z,0.00
2019-02-03T03:38:15.739Z,0.00
2019-02-03T03:39:15.788Z,0.00
2019-02-03T03:41:08.787Z,0.00
2019-02-03T03:42:08.862Z,0.00
2019-02-03T03:44:01.799Z,0.00
2019-02-03T03:45:01.852Z,0.00
2019-02-03T03:46:59.839Z,0.00
2019-02-03T03:47:59.892Z,0.00
2019-02-03T03:49:52.849Z,0.00
2019-02-03T03:50:53.035Z,0.00
2019-02-03T03:52:50.887Z,0.00
2019-02-03T03:53:50.929Z,0.00
2019-02-03T03:55:43.911Z,0.00
2019-02-03T03:56:43.955Z,0.00
2019-02-03T03:58:41.932Z,0.00
2019-02-03T03:59:41.979Z,0.00
2019-02-03T04:01:34.972Z,0.00
2019-02-03T04:02:35.007Z,0.00
2019-02-03T04:04:27.993Z,0.00
2019-02-03T04:05:28.041Z,0.00
2019-02-03T04:07:21.044Z,0.00
2019-02-03T04:08:21.067Z,0.00
2019-02-03T04:10:14.550Z,0.00
2019-02-03T04:11:14.613Z,0.00
2019-02-03T04:13:09.070Z,0.00
2019-02-03T04:14:09.107Z,0.00
2019-02-03T04:16:02.083Z,0.00
2019-02-03T04:17:02.160Z,0.00
2019-02-03T04:18:55.132Z,0.00
2019-02-03T04:19:55.202Z,0.00
2019-02-03T04:21:48.151Z,0.00
2019-02-03T04:22:48.200Z,0.00
2019-02-03T04:24:41.204Z,0.00
2019-02-03T04:25:41.367Z,0.00
2019-02-03T04:27:34.254Z,0.00
2019-02-03T04:28:34.270Z,0.00
2019-02-03T04:30:27.277Z,0.00
2019-02-03T04:31:27.295Z,0.00
2019-02-03T04:33:25.281Z,0.00
2019-02-03T04:34:25.371Z,0.00
2019-02-03T04:36:18.313Z,0.00
2019-02-03T04:37:18.358Z,0.00
2019-02-03T04:39:11.839Z,0.00
2019-02-03T04:40:11.890Z,0.00
2019-02-03T04:42:07.880Z,0.00
2019-02-03T04:43:07.950Z,0.00
2019-02-03T04:45:00.912Z,0.00
2019-02-03T04:46:01.118Z,0.00
2019-02-03T04:47:53.964Z,0.00
2019-02-03T04:48:54.008Z,0.00
2019-02-03T04:50:46.984Z,0.00
2019-02-03T04:51:47.053Z,0.00
2019-02-03T04:53:40.037Z,0.00
2019-02-03T04:54:40.072Z,0.00
2019-02-03T04:56:33.095Z,0.00
2019-02-03T04:57:33.124Z,0.00
2019-02-03T04:59:26.093Z,0.00
2019-02-03T05:00:26.432Z,0.00
2019-02-03T05:02:22.131Z,0.00
2019-02-03T05:03:22.184Z,0.00
2019-02-03T05:05:15.190Z,0.00
2019-02-03T05:06:15.246Z,0.00
2019-02-03T05:08:08.239Z,0.00
2019-02-03T05:09:11.319Z,0.00
2019-02-03T05:11:01.239Z,0.00
2019-02-03T05:12:01.304Z,0.00
2019-02-03T05:13:54.306Z,0.00
2019-02-03T05:14:54.349Z,0.00
2019-02-03T05:16:47.364Z,0.00
2019-02-03T05:17:47.540Z,0.00
2019-02-03T05:19:40.388Z,0.00
2019-02-03T05:20:40.420Z,0.00
2019-02-03T05:22:33.398Z,0.00
2019-02-03T05:23:33.463Z,0.00
2019-02-03T05:25:26.428Z,0.00
2019-02-03T05:26:26.480Z,0.00
2019-02-03T05:28:19.477Z,0.00
2019-02-03T05:29:19.524Z,0.00
2019-02-03T05:31:12.497Z,0.00
2019-02-03T05:32:12.543Z,0.00
2019-02-03T05:34:05.530Z,0.00
2019-02-03T05:35:05.578Z,0.00
2019-02-03T05:36:58.564Z,0.00
2019-02-03T05:37:58.602Z,0.00
2019-02-03T05:39:51.592Z,0.00
2019-02-03T05:40:51.633Z,0.00
2019-02-03T05:42:44.605Z,0.00
2019-02-03T05:43:44.654Z,0.00
2019-02-03T05:45:37.627Z,0.00
2019-02-03T05:46:37.689Z,0.00
2019-02-03T05:48:30.660Z,0.00
2019-02-03T05:49:30.706Z,0.00
2019-02-03T05:51:23.680Z,0.00
2019-02-03T05:52:23.732Z,0.00
2019-02-03T05:54:16.709Z,0.00
2019-02-03T05:55:16.753Z,0.00
2019-02-03T05:57:09.739Z,0.00
2019-02-03T05:58:09.787Z,0.00
2019-02-03T06:00:02.770Z,0.00
2019-02-03T06:01:02.823Z,0.00
2019-02-03T06:02:55.811Z,0.00
2019-02-03T06:03:55.850Z,0.00
2019-02-03T06:05:48.862Z,0.00
2019-02-03T06:06:48.878Z,0.00
2019-02-03T06:08:41.866Z,0.00
2019-02-03T06:09:41.914Z,0.00
2019-02-03T06:11:34.896Z,0.00
2019-02-03T06:12:34.947Z,0.00
2019-02-03T06:14:27.927Z,0.00
2019-02-03T06:15:27.966Z,0.00
2019-02-03T06:17:20.943Z,0.00
2019-02-03T06:18:20.994Z,0.00
2019-02-03T06:20:13.987Z,0.00
2019-02-03T06:21:14.042Z,0.00
2019-02-03T06:23:07.025Z,0.00
2019-02-03T06:24:07.064Z,0.00
2019-02-03T06:26:00.050Z,0.00
2019-02-03T06:27:00.093Z,0.00
2019-02-03T06:28:53.092Z,0.00
2019-02-03T06:29:53.122Z,0.00
2019-02-03T06:31:46.122Z,0.00
2019-02-03T06:32:46.146Z,0.00
2019-02-03T06:34:39.123Z,0.00
2019-02-03T06:35:39.169Z,0.00
2019-02-03T06:37:32.152Z,4.00
2019-02-03T06:38:32.204Z,4.00
2019-02-03T06:40:25.856Z,4.00
2019-02-03T06:41:25.240Z,8.00
2019-02-03T06:43:18.217Z,8.00
2019-02-03T06:44:18.264Z,4.00
2019-02-03T06:46:11.241Z,12.00
2019-02-03T06:47:11.295Z,12.00
2019-02-03T06:49:04.270Z,12.00
2019-02-03T06:50:04.321Z,16.00
2019-02-03T06:51:57.342Z,24.00
2019-02-03T06:52:57.359Z,28.00
2019-02-03T06:54:50.346Z,36.00
2019-02-03T06:55:50.389Z,40.00
2019-02-03T06:57:43.376Z,48.00
2019-02-03T06:58:43.422Z,60.00
2019-02-03T07:00:36.414Z,72.00
2019-02-03T07:01:36.461Z,84.00
2019-02-03T07:03:30.968Z,100.00
2019-02-03T07:04:30.997Z,112.00
2019-02-03T07:06:23.979Z,136.00
2019-02-03T07:07:24.027Z,152.00
2019-02-03T07:09:17.029Z,176.00
2019-02-03T07:10:17.062Z,192.00
2019-02-03T07:12:10.042Z,204.00
2019-02-03T07:13:10.096Z,216.00
2019-02-03T07:15:03.071Z,260.00
2019-02-03T07:16:03.120Z,284.00
2019-02-03T07:17:56.086Z,316.00
2019-02-03T07:18:56.140Z,336.00
2019-02-03T07:20:49.141Z,372.00
2019-02-03T07:21:49.658Z,396.00
2019-02-03T07:23:42.166Z,436.00
2019-02-03T07:24:42.215Z,456.00
2019-02-03T07:26:35.211Z,504.00
2019-02-03T07:27:35.265Z,532.00
2019-02-03T07:29:28.297Z,580.00
2019-02-03T07:30:28.291Z,604.00
2019-02-03T07:32:21.259Z,628.00
2019-02-03T07:33:21.316Z,628.00
2019-02-03T07:35:14.332Z,644.00
2019-02-03T07:36:14.347Z,660.00
2019-02-03T07:38:10.455Z,712.00
2019-02-03T07:39:07.399Z,756.00
2019-02-03T07:41:00.368Z,820.00
2019-02-03T07:42:00.434Z,848.00
2019-02-03T07:43:53.398Z,908.00
2019-02-03T07:44:53.449Z,940.00
2019-02-03T07:46:46.421Z,996.00
2019-02-03T07:47:46.471Z,1028.00
2019-02-03T07:49:39.451Z,1096.00
2019-02-03T07:50:39.491Z,1128.00
2019-02-03T07:52:32.469Z,1204.00
2019-02-03T07:53:32.521Z,1248.00
2019-02-03T07:55:25.517Z,1356.00
2019-02-03T07:56:25.547Z,1440.00
2019-02-03T07:58:18.527Z,1528.00
2019-02-03T07:59:18.580Z,1568.00
2019-02-03T08:01:11.561Z,1668.00
2019-02-03T08:02:11.601Z,1724.00
2019-02-03T08:04:04.595Z,1860.00
2019-02-03T08:05:04.644Z,1924.00
2019-02-03T08:06:57.621Z,2236.00
2019-02-03T08:07:57.661Z,2668.00
2019-02-03T08:09:50.650Z,3240.00
2019-02-03T08:10:50.688Z,3324.00
2019-02-03T08:12:43.670Z,3304.00
2019-02-03T08:13:43.741Z,3340.00
2019-02-03T08:15:36.712Z,3360.00
2019-02-03T08:16:36.764Z,3404.00
2019-02-03T08:18:29.744Z,3528.00
2019-02-03T08:19:29.787Z,3644.00
2019-02-03T08:21:22.814Z,3808.00
2019-02-03T08:22:22.868Z,3912.00
2019-02-03T08:24:15.839Z,4120.00
2019-02-03T08:25:15.885Z,4140.00
2019-02-03T08:27:08.857Z,4256.00
2019-02-03T08:28:08.926Z,4316.00
2019-02-03T08:30:01.895Z,4324.00
2019-02-03T08:31:01.938Z,4340.00
2019-02-03T08:32:54.958Z,4408.00
2019-02-03T08:33:54.979Z,4424.00
2019-02-03T08:35:47.967Z,4352.00
2019-02-03T08:36:48.005Z,4300.00
2019-02-03T08:38:40.992Z,4252.00
2019-02-03T08:39:41.031Z,4220.00
2019-02-03T08:41:34.037Z,4216.00
2019-02-03T08:42:35.271Z,4216.00
2019-02-03T08:44:27.042Z,4260.00
2019-02-03T08:45:27.106Z,4328.00
2019-02-03T08:47:20.069Z,4312.00
2019-02-03T08:48:20.118Z,4328.00
2019-02-03T08:50:13.113Z,4228.00
2019-02-03T08:51:13.211Z,4204.00
2019-02-03T08:53:06.130Z,4184.00
2019-02-03T08:54:06.180Z,4208.00
2019-02-03T08:55:59.157Z,4244.00
2019-02-03T08:56:59.209Z,4256.00
2019-02-03T08:58:52.185Z,4196.00
2019-02-03T08:59:52.233Z,4176.00
2019-02-03T09:01:45.220Z,4148.00
2019-02-03T09:02:45.265Z,4108.00
2019-02-03T09:04:38.259Z,4072.00
2019-02-03T09:05:38.315Z,4020.00
2019-02-03T09:07:31.311Z,3928.00
2019-02-03T09:08:31.348Z,3844.00
2019-02-03T09:10:24.346Z,3780.00
2019-02-03T09:11:24.392Z,3716.00
2019-02-03T09:13:17.378Z,3552.00
2019-02-03T09:14:18.409Z,3492.00
2019-02-03T09:16:12.202Z,3208.00
2019-02-03T09:17:10.460Z,3084.00
2019-02-03T09:19:03.454Z,2884.00
2019-02-03T09:20:03.509Z,2828.00
2019-02-03T09:21:56.496Z,2824.00
2019-02-03T09:22:56.543Z,2800.00
2019-02-03T09:24:49.517Z,2816.00
2019-02-03T09:25:49.573Z,2820.00
2019-02-03T09:27:42.558Z,2812.00
2019-02-03T09:28:42.610Z,2832.00
2019-02-03T09:30:35.590Z,2808.00
2019-02-03T09:31:35.649Z,2836.00
2019-02-03T09:33:28.631Z,2812.00
2019-02-03T09:34:28.671Z,2816.00
2019-02-03T09:36:22.159Z,2852.00
2019-02-03T09:37:22.208Z,2848.00
2019-02-03T09:39:15.181Z,2864.00
2019-02-03T09:40:15.237Z,2852.00
2019-02-03T09:42:08.214Z,2848.00
2019-02-03T09:43:08.266Z,2824.00
2019-02-03T09:45:01.262Z,2836.00
2019-02-03T09:46:01.294Z,2856.00
2019-02-03T09:47:54.269Z,2824.00
2019-02-03T09:48:54.319Z,2840.00
2019-02-03T09:50:47.294Z,2836.00
2019-02-03T09:51:47.348Z,2844.00
2019-02-03T09:53:40.335Z,2844.00
2019-02-03T09:54:40.380Z,2844.00
2019-02-03T09:56:33.383Z,2864.00
2019-02-03T09:57:33.438Z,2844.00
2019-02-03T09:59:26.404Z,2848.00
2019-02-03T10:00:26.454Z,2828.00
2019-02-03T10:02:19.442Z,2832.00
2019-02-03T10:03:19.483Z,2844.00
2019-02-03T10:05:12.452Z,2808.00
2019-02-03T10:06:12.516Z,2816.00
2019-02-03T10:08:06.003Z,2832.00
2019-02-03T10:09:06.036Z,2824.00
2019-02-03T10:10:59.011Z,2812.00
2019-02-03T10:11:59.064Z,2808.00
2019-02-03T10:13:52.055Z,2796.00
2019-02-03T10:14:52.099Z,2812.00
2019-02-03T10:16:47.507Z,2804.00
2019-02-03T10:17:45.124Z,2808.00
2019-02-03T10:19:38.104Z,2840.00
2019-02-03T10:20:38.161Z,2820.00
2019-02-03T10:22:31.153Z,2808.00
2019-02-03T10:23:31.199Z,2816.00
2019-02-03T10:25:24.672Z,2800.00
2019-02-03T10:26:24.730Z,2812.00
2019-02-03T10:28:17.704Z,2824.00
2019-02-03T10:29:17.754Z,2832.00
2019-02-03T10:31:10.726Z,2816.00
2019-02-03T10:32:10.784Z,2828.00
2019-02-03T10:34:03.752Z,2824.00
2019-02-03T10:35:03.806Z,2840.00
2019-02-03T10:36:56.794Z,2852.00
2019-02-03T10:37:56.836Z,2856.00
2019-02-03T10:39:49.805Z,2832.00
2019-02-03T10:40:49.861Z,2840.00
2019-02-03T10:42:42.851Z,2848.00
2019-02-03T10:43:42.904Z,2844.00
2019-02-03T10:45:35.885Z,2872.00
2019-02-03T10:46:35.939Z,2872.00
2019-02-03T10:48:29.428Z,2856.00
2019-02-03T10:49:29.473Z,2848.00
2019-02-03T10:51:22.447Z,2872.00
2019-02-03T10:52:22.498Z,2852.00
2019-02-03T10:54:15.490Z,2888.00
2019-02-03T10:55:15.544Z,2900.00
2019-02-03T10:57:08.531Z,2892.00
2019-02-03T10:58:08.573Z,2908.00
2019-02-03T11:00:01.543Z,2924.00
2019-02-03T11:01:01.605Z,2952.00
2019-02-03T11:02:54.594Z,3364.00
2019-02-03T11:03:54.630Z,3432.00
2019-02-03T11:05:47.650Z,3836.00
2019-02-03T11:06:47.660Z,3988.00
2019-02-03T11:08:40.659Z,4864.00
2019-02-03T11:09:40.697Z,5672.00
2019-02-03T11:11:36.634Z,7644.00
2019-02-03T11:12:33.731Z,8384.00
2019-02-03T11:14:27.208Z,6160.00
2019-02-03T11:15:27.261Z,5268.00
2019-02-03T11:17:20.235Z,7008.00
2019-02-03T11:18:20.289Z,8412.00
2019-02-03T11:20:13.286Z,8536.00
2019-02-03T11:21:13.336Z,8396.00
2019-02-03T11:23:06.319Z,8144.00
2019-02-03T11:24:06.369Z,8120.00
2019-02-03T11:26:00.257Z,7716.00
2019-02-03T11:26:59.397Z,7652.00
2019-02-03T11:28:52.404Z,7132.00
2019-02-03T11:29:52.429Z,6992.00
2019-02-03T11:31:45.468Z,5972.00
2019-02-03T11:32:45.461Z,5460.00
2019-02-03T11:34:38.450Z,5576.00
2019-02-03T11:35:38.500Z,6108.00
2019-02-03T11:37:31.482Z,6520.00
2019-02-03T11:38:31.537Z,7392.00
2019-02-03T11:40:24.515Z,8100.00
2019-02-03T11:41:24.607Z,8296.00
2019-02-03T11:43:17.588Z,8472.00
2019-02-03T11:44:17.605Z,8572.00
2019-02-03T11:46:10.620Z,8480.00
2019-02-03T11:47:10.637Z,8176.00
2019-02-03T11:49:04.123Z,7588.00
2019-02-03T11:50:04.172Z,7176.00
2019-02-03T11:51:57.171Z,7020.00
2019-02-03T11:52:57.218Z,7268.00
2019-02-03T11:54:50.207Z,7360.00
2019-02-03T11:55:50.246Z,7440.00
2019-02-03T11:57:43.249Z,7388.00
2019-02-03T11:58:43.276Z,7140.00
2019-02-03T12:00:36.264Z,6336.00
2019-02-03T12:01:36.312Z,6244.00
2019-02-03T12:03:29.295Z,5536.00
2019-02-03T12:04:29.337Z,4968.00
2019-02-03T12:06:22.324Z,4760.00
2019-02-03T12:07:22.454Z,5168.00
2019-02-03T12:09:15.368Z,4592.00
2019-02-03T12:10:15.414Z,4268.00
2019-02-03T12:12:08.403Z,5584.00
2019-02-03T12:13:08.459Z,6772.00
2019-02-03T12:15:01.484Z,8316.00
2019-02-03T12:16:01.485Z,8584.00
2019-02-03T12:17:54.504Z,8712.00
2019-02-03T12:18:54.520Z,8352.00
2019-02-03T12:20:49.098Z,8060.00
2019-02-03T12:21:49.057Z,7948.00
2019-02-03T12:23:42.045Z,7448.00
2019-02-03T12:24:42.090Z,6732.00
2019-02-03T12:26:36.423Z,5016.00
2019-02-03T12:27:35.122Z,4248.00
2019-02-03T12:29:28.727Z,3572.00
2019-02-03T12:30:28.171Z,3780.00
2019-02-03T12:32:21.149Z,5120.00
2019-02-03T12:33:21.208Z,6688.00
2019-02-03T12:35:14.202Z,9308.00
2019-02-03T12:36:14.241Z,9716.00
2019-02-03T12:38:07.231Z,8952.00
2019-02-03T12:39:07.284Z,8792.00
2019-02-03T12:41:00.262Z,7848.00
2019-02-03T12:42:00.314Z,7848.00
2019-02-03T12:43:53.407Z,8184.00
2019-02-03T12:44:53.353Z,7248.00
2019-02-03T12:46:46.335Z,7388.00
2019-02-03T12:47:46.402Z,7024.00
2019-02-03T12:49:39.375Z,6164.00
2019-02-03T12:50:39.425Z,5920.00
2019-02-03T12:52:32.404Z,5708.00
2019-02-03T12:53:32.468Z,5588.00
2019-02-03T12:55:25.453Z,5780.00
2019-02-03T12:56:25.518Z,6480.00
2019-02-03T12:58:19.610Z,6568.00
2019-02-03T12:59:18.539Z,6212.00
2019-02-03T13:01:11.523Z,5888.00
2019-02-03T13:02:11.573Z,6232.00
2019-02-03T13:04:04.583Z,6400.00
2019-02-03T13:05:04.608Z,6348.00
2019-02-03T13:06:57.605Z,6108.00
2019-02-03T13:07:57.658Z,6088.00
2019-02-03T13:09:50.685Z,6568.00
2019-02-03T13:10:50.690Z,6272.00
2019-02-03T13:12:43.690Z,5900.00
2019-02-03T13:13:43.749Z,5708.00
2019-02-03T13:15:36.744Z,5236.00
2019-02-03T13:16:36.776Z,5200.00
2019-02-03T13:18:29.750Z,4644.00
2019-02-03T13:19:29.808Z,4580.00
2019-02-03T13:21:22.897Z,4232.00
2019-02-03T13:22:22.849Z,4104.00
2019-02-03T13:24:18.615Z,4128.00
2019-02-03T13:25:15.943Z,4380.00
2019-02-03T13:27:08.898Z,5168.00
2019-02-03T13:28:08.941Z,5488.00
2019-02-03T13:30:01.922Z,5572.00
2019-02-03T13:31:01.979Z,5676.00
2019-02-03T13:32:54.991Z,5388.00
2019-02-03T13:33:58.871Z,4956.00
2019-02-03T13:35:48.014Z,4196.00
2019-02-03T13:36:48.053Z,4040.00
2019-02-03T13:38:41.539Z,3940.00
2019-02-03T13:39:41.590Z,3764.00
2019-02-03T13:41:34.596Z,3160.00
2019-02-03T13:42:37.326Z,3560.00
2019-02-03T13:44:27.615Z,4792.00
2019-02-03T13:45:27.658Z,4916.00
2019-02-03T13:47:20.646Z,4504.00
2019-02-03T13:48:20.694Z,4668.00
2019-02-03T13:50:13.665Z,5456.00
2019-02-03T13:51:13.723Z,5216.00
2019-02-03T13:53:06.760Z,4724.00
2019-02-03T13:54:06.762Z,4688.00
2019-02-03T13:55:59.763Z,4672.00
2019-02-03T13:56:59.813Z,4572.00
2019-02-03T13:58:52.783Z,4172.00
2019-02-03T13:59:52.827Z,4108.00
2019-02-03T14:01:45.817Z,4048.00
2019-02-03T14:02:45.866Z,3920.00
2019-02-03T14:04:39.360Z,3352.00
2019-02-03T14:05:39.399Z,3056.00
2019-02-03T14:07:32.419Z,2820.00
2019-02-03T14:08:32.489Z,2732.00
2019-02-03T14:10:25.975Z,2868.00
2019-02-03T14:11:25.499Z,2776.00
2019-02-03T14:13:18.983Z,2800.00
2019-02-03T14:14:19.026Z,2904.00
2019-02-03T14:16:12.059Z,3148.00
2019-02-03T14:17:12.157Z,3836.00
2019-02-03T14:19:05.083Z,4664.00
2019-02-03T14:20:05.142Z,4816.00
2019-02-03T14:21:58.126Z,5156.00
2019-02-03T14:22:58.195Z,4616.00
2019-02-03T14:24:51.170Z,3972.00
2019-02-03T14:25:51.215Z,4168.00
2019-02-03T14:27:44.204Z,4688.00
2019-02-03T14:28:44.268Z,4420.00
2019-02-03T14:30:41.048Z,4068.00
2019-02-03T14:31:37.287Z,3848.00
2019-02-03T14:33:30.329Z,2852.00
2019-02-03T14:34:30.341Z,2532.00
2019-02-03T14:36:23.356Z,2492.00
2019-02-03T14:37:23.391Z,2320.00
2019-02-03T14:39:16.401Z,2332.00
2019-02-03T14:40:16.417Z,2304.00
2019-02-03T14:42:10.070Z,1932.00
2019-02-03T14:43:09.463Z,1780.00
2019-02-03T14:45:04.806Z,1652.00
2019-02-03T14:46:02.500Z,1836.00
2019-02-03T14:47:55.496Z,2256.00
2019-02-03T14:48:55.592Z,2176.00
2019-02-03T14:50:48.524Z,1832.00
2019-02-03T14:51:48.566Z,1844.00
2019-02-03T14:53:41.560Z,1972.00
2019-02-03T14:54:41.652Z,1948.00
2019-02-03T14:56:34.592Z,1904.00
2019-02-03T14:57:34.647Z,2140.00
2019-02-03T14:59:27.633Z,2380.00
2019-02-03T15:00:27.682Z,2152.00
2019-02-03T15:02:20.666Z,1696.00
2019-02-03T15:03:20.725Z,1596.00
2019-02-03T15:05:13.707Z,1532.00
2019-02-03T15:06:13.753Z,1556.00
2019-02-03T15:08:06.753Z,1532.00
2019-02-03T15:09:06.801Z,1480.00
2019-02-03T15:10:59.787Z,1276.00
2019-02-03T15:11:59.857Z,1216.00
2019-02-03T15:13:52.831Z,1268.00
2019-02-03T15:14:52.891Z,1324.00
2019-02-03T15:16:45.886Z,1452.00
2019-02-03T15:17:45.999Z,1468.00
2019-02-03T15:19:38.928Z,1392.00
2019-02-03T15:20:38.979Z,1304.00
2019-02-03T15:22:31.985Z,1260.00
2019-02-03T15:23:32.015Z,1284.00
2019-02-03T15:25:25.647Z,1280.00
2019-02-03T15:26:25.165Z,1252.00
2019-02-03T15:28:29.970Z,1168.00
2019-02-03T15:29:30.010Z,1164.00
2019-02-03T15:31:22.994Z,1184.00
2019-02-03T15:32:23.064Z,1208.00
2019-02-03T15:34:16.038Z,1312.00
2019-02-03T15:35:16.087Z,1364.00
2019-02-03T15:37:09.146Z,1308.00
2019-02-03T15:38:09.212Z,1280.00
2019-02-03T15:40:02.105Z,1212.00
2019-02-03T15:41:02.174Z,1164.00
2019-02-03T15:42:55.153Z,1072.00
2019-02-03T15:43:55.203Z,1028.00
2019-02-03T15:45:48.209Z,920.00
2019-02-03T15:46:48.263Z,892.00
2019-02-03T15:48:41.227Z,808.00
2019-02-03T15:49:41.271Z,752.00
2019-02-03T15:51:34.252Z,704.00
2019-02-03T15:52:34.309Z,680.00
2019-02-03T15:54:27.297Z,644.00
2019-02-03T15:55:27.353Z,644.00
2019-02-03T15:57:20.325Z,588.00
2019-02-03T15:58:20.375Z,556.00
2019-02-03T16:00:13.361Z,512.00
2019-02-03T16:01:13.408Z,496.00
2019-02-03T16:03:08.462Z,464.00
2019-02-03T16:04:06.438Z,448.00
2019-02-03T16:05:59.411Z,424.00
2019-02-03T16:06:59.478Z,416.00
2019-02-03T16:08:52.466Z,388.00
2019-02-03T16:09:52.517Z,368.00
2019-02-03T16:11:45.496Z,324.00
2019-02-03T16:12:45.553Z,304.00
2019-02-03T16:14:38.542Z,260.00
2019-02-03T16:15:38.598Z,240.00
2019-02-03T16:17:31.660Z,212.00
2019-02-03T16:18:31.622Z,200.00
2019-02-03T16:20:24.602Z,180.00
2019-02-03T16:21:24.652Z,164.00
2019-02-03T16:23:17.668Z,140.00
2019-02-03T16:24:17.678Z,124.00
2019-02-03T16:26:11.154Z,100.00
2019-02-03T16:27:11.210Z,92.00
2019-02-03T16:29:04.752Z,68.00
2019-02-03T16:30:04.778Z,60.00
2019-02-03T16:32:09.364Z,48.00
2019-02-03T16:33:09.524Z,40.00
2019-02-03T16:35:02.400Z,32.00
2019-02-03T16:36:02.478Z,24.00
2019-02-03T16:37:55.428Z,16.00
2019-02-03T16:38:55.478Z,16.00
2019-02-03T16:40:48.467Z,12.00
2019-02-03T16:41:48.541Z,12.00
2019-02-03T16:43:48.658Z,4.00
2019-02-03T16:44:41.553Z,4.00
2019-02-03T16:46:35.246Z,4.00
2019-02-03T16:47:34.611Z,0.00
2019-02-03T16:49:27.577Z,4.00
2019-02-03T16:50:27.648Z,0.00
2019-02-03T16:52:20.607Z,0.00
2019-02-03T16:53:20.655Z,0.00
2019-02-03T16:55:13.643Z,0.00
2019-02-03T16:56:13.689Z,0.00
2019-02-03T16:58:06.660Z,0.00
2019-02-03T16:59:06.710Z,0.00
2019-02-03T17:00:59.701Z,0.00
2019-02-03T17:01:59.753Z,0.00
2019-02-03T17:03:52.775Z,0.00
2019-02-03T17:04:52.822Z,0.00
2019-02-03T17:06:45.839Z,0.00
2019-02-03T17:07:45.877Z,0.00
2019-02-03T17:09:38.910Z,0.00
2019-02-03T17:10:38.914Z,0.00
2019-02-03T17:12:31.893Z,0.00
2019-02-03T17:13:31.941Z,0.00
2019-02-03T17:15:24.961Z,0.00
2019-02-03T17:16:25.011Z,0.00
2019-02-03T17:18:17.945Z,0.00
2019-02-03T17:19:18.001Z,0.00
2019-02-03T17:21:11.498Z,0.00
2019-02-03T17:22:11.550Z,0.00
2019-02-03T17:24:04.531Z,0.00
2019-02-03T17:25:04.582Z,0.00
2019-02-03T17:26:57.563Z,0.00
2019-02-03T17:27:57.622Z,0.00
2019-02-03T17:29:50.622Z,0.00
2019-02-03T17:30:53.437Z,0.00
2019-02-03T17:32:43.622Z,0.00
2019-02-03T17:33:43.677Z,0.00
2019-02-03T17:35:36.662Z,0.00
2019-02-03T17:36:36.710Z,0.00
2019-02-03T17:38:29.705Z,0.00
2019-02-03T17:39:29.736Z,0.00
2019-02-03T17:41:22.725Z,0.00
2019-02-03T17:42:22.783Z,0.00
2019-02-03T17:44:19.865Z,0.00
2019-02-03T17:45:15.817Z,0.00
2019-02-03T17:47:08.792Z,0.00
2019-02-03T17:48:08.837Z,0.00
2019-02-03T17:50:01.858Z,0.00
2019-02-03T17:51:01.892Z,0.00
2019-02-03T17:52:54.877Z,0.00
2019-02-03T17:53:54.931Z,0.00
2019-02-03T17:55:47.911Z,0.00
2019-02-03T17:56:47.959Z,0.00
2019-02-03T17:58:40.936Z,0.00
2019-02-03T17:59:40.992Z,0.00
2019-02-03T18:01:33.967Z,0.00
2019-02-03T18:02:34.037Z,0.00
2019-02-03T18:04:27.048Z,0.00
2019-02-03T18:05:27.052Z,0.00
2019-02-03T18:07:20.058Z,0.00
2019-02-03T18:08:20.084Z,0.00
2019-02-03T18:10:13.079Z,0.00
2019-02-03T18:11:13.127Z,0.00
2019-02-03T18:13:06.117Z,0.00
2019-02-03T18:14:06.154Z,0.00
2019-02-03T18:15:59.138Z,0.00
2019-02-03T18:16:59.191Z,0.00
2019-02-03T18:18:52.185Z,0.00